sensor_id;sensor_type;location;lat;lon;timestamp;P1;durP1;ratioP1;P2;durP2;ratioP2
18893;SDS011;9579;49.488;8.226;2023-07-24T00:00:59;4.00;;;3.70;;
18893;SDS011;9579;49.488;8.226;2023-07-24T00:03:47;3.60;;;3.33;;
18893;SDS011;9579;49.488;8.226;2023-07-24T00:06:34;4.32;;;4.00;;
18893;SDS011;9579;49.488;8.226;2023-07-24T00:09:21;3.55;;;3.35;;
18893;SDS011;9579;49.488;8.226;2023-07-24T00:12:08;3.85;;;3.55;;
18893;SDS011;9579;49.488;8.226;2023-07-24T00:14:55;3.80;;;3.50;;
18893;SDS011;9579;49.488;8.226;2023-07-24T00:17:42;3.85;;;3.53;;
18893;SDS011;9579;49.488;8.226;2023-07-24T00:20:31;3.70;;;3.40;;
18893;SDS011;9579;49.488;8.226;2023-07-24T00:23:18;4.25;;;3.88;;
18893;SDS011;9579;49.488;8.226;2023-07-24T00:26:05;4.28;;;3.92;;
18893;SDS011;9579;49.488;8.226;2023-07-24T00:28:52;3.65;;;3.40;;
18893;SDS011;9579;49.488;8.226;2023-07-24T00:31:39;3.90;;;3.60;;
18893;SDS011;9579;49.488;8.226;2023-07-24T00:34:26;3.50;;;3.30;;
18893;SDS011;9579;49.488;8.226;2023-07-24T00:37:14;4.00;;;3.70;;
18893;SDS011;9579;49.488;8.226;2023-07-24T00:40:01;4.28;;;3.90;;
18893;SDS011;9579;49.488;8.226;2023-07-24T00:42:49;4.45;;;3.55;;
18893;SDS011;9579;49.488;8.226;2023-07-24T00:45:36;4.07;;;3.78;;
18893;SDS011;9579;49.488;8.226;2023-07-24T00:48:23;4.10;;;3.80;;
18893;SDS011;9579;49.488;8.226;2023-07-24T00:51:10;4.30;;;3.95;;
18893;SDS011;9579;49.488;8.226;2023-07-24T00:54:00;4.25;;;3.92;;
18893;SDS011;9579;49.488;8.226;2023-07-24T00:56:48;3.72;;;3.42;;
18893;SDS011;9579;49.488;8.226;2023-07-24T00:59:35;3.80;;;3.50;;
18893;SDS011;9579;49.488;8.226;2023-07-24T01:02:22;4.20;;;3.90;;
18893;SDS011;9579;49.488;8.226;2023-07-24T01:05:09;4.10;;;3.80;;
18893;SDS011;9579;49.488;8.226;2023-07-24T01:07:58;3.78;;;3.58;;
18893;SDS011;9579;49.488;8.226;2023-07-24T01:10:47;4.45;;;4.05;;
18893;SDS011;9579;49.488;8.226;2023-07-24T01:13:36;4.30;;;4.00;;
18893;SDS011;9579;49.488;8.226;2023-07-24T01:16:29;3.70;;;3.40;;
18893;SDS011;9579;49.488;8.226;2023-07-24T01:19:20;3.65;;;3.40;;
18893;SDS011;9579;49.488;8.226;2023-07-24T01:22:25;4.10;;;3.80;;
18893;SDS011;9579;49.488;8.226;2023-07-24T01:25:27;4.47;;;4.18;;
18893;SDS011;9579;49.488;8.226;2023-07-24T01:28:22;4.20;;;3.80;;
18893;SDS011;9579;49.488;8.226;2023-07-24T01:31:09;4.28;;;3.90;;
18893;SDS011;9579;49.488;8.226;2023-07-24T01:33:57;3.95;;;3.65;;
18893;SDS011;9579;49.488;8.226;2023-07-24T01:36:44;4.32;;;3.92;;
18893;SDS011;9579;49.488;8.226;2023-07-24T01:39:31;3.35;;;3.13;;
18893;SDS011;9579;49.488;8.226;2023-07-24T01:42:19;3.63;;;3.33;;
18893;SDS011;9579;49.488;8.226;2023-07-24T01:45:08;4.00;;;3.70;;
18893;SDS011;9579;49.488;8.226;2023-07-24T01:47:56;3.83;;;3.53;;
18893;SDS011;9579;49.488;8.226;2023-07-24T01:50:43;4.10;;;3.80;;
18893;SDS011;9579;49.488;8.226;2023-07-24T01:53:30;4.10;;;3.80;;
18893;SDS011;9579;49.488;8.226;2023-07-24T01:56:17;4.50;;;4.13;;
18893;SDS011;9579;49.488;8.226;2023-07-24T01:59:04;4.50;;;4.20;;
18893;SDS011;9579;49.488;8.226;2023-07-24T02:01:53;4.28;;;3.90;;
18893;SDS011;9579;49.488;8.226;2023-07-24T02:04:40;4.05;;;3.75;;
18893;SDS011;9579;49.488;8.226;2023-07-24T02:07:27;4.25;;;3.95;;
18893;SDS011;9579;49.488;8.226;2023-07-24T02:10:14;4.45;;;4.05;;
18893;SDS011;9579;49.488;8.226;2023-07-24T02:13:01;4.10;;;3.80;;
18893;SDS011;9579;49.488;8.226;2023-07-24T02:15:48;4.20;;;3.90;;
18893;SDS011;9579;49.488;8.226;2023-07-24T02:18:37;4.60;;;4.20;;
18893;SDS011;9579;49.488;8.226;2023-07-24T02:21:24;4.78;;;4.38;;
18893;SDS011;9579;49.488;8.226;2023-07-24T02:24:11;4.72;;;4.30;;
18893;SDS011;9579;49.488;8.226;2023-07-24T02:26:58;4.78;;;4.38;;
18893;SDS011;9579;49.488;8.226;2023-07-24T02:29:46;4.10;;;3.80;;
18893;SDS011;9579;49.488;8.226;2023-07-24T02:32:33;4.40;;;3.95;;
18893;SDS011;9579;49.488;8.226;2023-07-24T02:35:21;4.53;;;4.13;;
18893;SDS011;9579;49.488;8.226;2023-07-24T02:38:08;4.47;;;4.18;;
18893;SDS011;9579;49.488;8.226;2023-07-24T02:40:56;4.50;;;4.20;;
18893;SDS011;9579;49.488;8.226;2023-07-24T02:43:43;4.82;;;4.43;;
18893;SDS011;9579;49.488;8.226;2023-07-24T02:46:30;4.30;;;3.95;;
18893;SDS011;9579;49.488;8.226;2023-07-24T02:49:17;5.03;;;4.47;;
18893;SDS011;9579;49.488;8.226;2023-07-24T02:52:06;4.65;;;4.05;;
18893;SDS011;9579;49.488;8.226;2023-07-24T02:54:53;4.40;;;4.00;;
18893;SDS011;9579;49.488;8.226;2023-07-24T02:57:40;4.45;;;4.15;;
18893;SDS011;9579;49.488;8.226;2023-07-24T03:00:27;4.65;;;4.25;;
18893;SDS011;9579;49.488;8.226;2023-07-24T03:03:14;4.85;;;4.40;;
18893;SDS011;9579;49.488;8.226;2023-07-24T03:06:01;4.80;;;4.40;;
18893;SDS011;9579;49.488;8.226;2023-07-24T03:08:50;4.75;;;4.15;;
18893;SDS011;9579;49.488;8.226;2023-07-24T03:11:37;5.10;;;4.45;;
18893;SDS011;9579;49.488;8.226;2023-07-24T03:14:24;4.65;;;4.25;;
18893;SDS011;9579;49.488;8.226;2023-07-24T03:17:11;4.80;;;4.40;;
18893;SDS011;9579;49.488;8.226;2023-07-24T03:19:58;4.90;;;4.20;;
18893;SDS011;9579;49.488;8.226;2023-07-24T03:22:53;4.50;;;4.10;;
18893;SDS011;9579;49.488;8.226;2023-07-24T03:25:42;4.75;;;4.35;;
18893;SDS011;9579;49.488;8.226;2023-07-24T03:28:29;5.10;;;4.43;;
18893;SDS011;9579;49.488;8.226;2023-07-24T03:31:16;5.05;;;4.55;;
18893;SDS011;9579;49.488;8.226;2023-07-24T03:34:03;4.53;;;4.13;;
18893;SDS011;9579;49.488;8.226;2023-07-24T03:36:50;5.07;;;4.57;;
18893;SDS011;9579;49.488;8.226;2023-07-24T03:39:37;5.38;;;4.90;;
18893;SDS011;9579;49.488;8.226;2023-07-24T03:42:26;4.97;;;4.57;;
18893;SDS011;9579;49.488;8.226;2023-07-24T03:45:13;5.72;;;4.60;;
18893;SDS011;9579;49.488;8.226;2023-07-24T03:48:00;5.50;;;5.00;;
18893;SDS011;9579;49.488;8.226;2023-07-24T03:50:49;5.20;;;4.80;;
18893;SDS011;9579;49.488;8.226;2023-07-24T03:53:36;5.55;;;5.05;;
18893;SDS011;9579;49.488;8.226;2023-07-24T03:56:23;4.80;;;4.10;;
18893;SDS011;9579;49.488;8.226;2023-07-24T03:59:11;5.40;;;4.90;;
18893;SDS011;9579;49.488;8.226;2023-07-24T04:01:58;4.90;;;4.50;;
18893;SDS011;9579;49.488;8.226;2023-07-24T04:04:46;5.68;;;5.18;;
18893;SDS011;9579;49.488;8.226;2023-07-24T04:07:34;5.57;;;4.90;;
18893;SDS011;9579;49.488;8.226;2023-07-24T04:10:22;5.72;;;4.97;;
18893;SDS011;9579;49.488;8.226;2023-07-24T04:13:09;5.68;;;5.07;;
18893;SDS011;9579;49.488;8.226;2023-07-24T04:15:57;5.72;;;5.20;;
18893;SDS011;9579;49.488;8.226;2023-07-24T04:18:44;5.93;;;5.32;;
18893;SDS011;9579;49.488;8.226;2023-07-24T04:21:31;6.60;;;6.00;;
18893;SDS011;9579;49.488;8.226;2023-07-24T04:24:18;6.00;;;5.32;;
18893;SDS011;9579;49.488;8.226;2023-07-24T04:27:05;5.10;;;4.70;;
18893;SDS011;9579;49.488;8.226;2023-07-24T04:29:52;5.82;;;5.28;;
18893;SDS011;9579;49.488;8.226;2023-07-24T04:32:41;5.97;;;4.95;;
18893;SDS011;9579;49.488;8.226;2023-07-24T04:35:28;5.90;;;5.40;;
18893;SDS011;9579;49.488;8.226;2023-07-24T04:38:15;6.68;;;5.50;;
18893;SDS011;9579;49.488;8.226;2023-07-24T04:41:02;5.88;;;5.40;;
18893;SDS011;9579;49.488;8.226;2023-07-24T04:43:49;6.93;;;6.28;;
18893;SDS011;9579;49.488;8.226;2023-07-24T04:46:36;7.32;;;6.72;;
18893;SDS011;9579;49.488;8.226;2023-07-24T04:49:25;7.00;;;6.40;;
18893;SDS011;9579;49.488;8.226;2023-07-24T04:52:14;7.10;;;6.50;;
18893;SDS011;9579;49.488;8.226;2023-07-24T04:55:01;6.50;;;5.93;;
18893;SDS011;9579;49.488;8.226;2023-07-24T04:57:48;6.57;;;5.97;;
18893;SDS011;9579;49.488;8.226;2023-07-24T05:00:35;7.03;;;6.38;;
18893;SDS011;9579;49.488;8.226;2023-07-24T05:03:22;6.60;;;5.90;;
18893;SDS011;9579;49.488;8.226;2023-07-24T05:06:10;6.28;;;5.78;;
18893;SDS011;9579;49.488;8.226;2023-07-24T05:08:57;6.97;;;5.80;;
18893;SDS011;9579;49.488;8.226;2023-07-24T05:11:44;7.75;;;7.03;;
18893;SDS011;9579;49.488;8.226;2023-07-24T05:14:31;6.57;;;5.97;;
18893;SDS011;9579;49.488;8.226;2023-07-24T05:17:18;7.45;;;6.65;;
18893;SDS011;9579;49.488;8.226;2023-07-24T05:20:06;7.20;;;6.60;;
18893;SDS011;9579;49.488;8.226;2023-07-24T05:22:55;7.38;;;6.70;;
18893;SDS011;9579;49.488;8.226;2023-07-24T05:25:42;7.15;;;6.45;;
18893;SDS011;9579;49.488;8.226;2023-07-24T05:28:30;8.68;;;7.90;;
18893;SDS011;9579;49.488;8.226;2023-07-24T05:31:18;7.60;;;6.90;;
18893;SDS011;9579;49.488;8.226;2023-07-24T05:34:05;7.78;;;7.07;;
18893;SDS011;9579;49.488;8.226;2023-07-24T05:36:52;8.20;;;7.40;;
18893;SDS011;9579;49.488;8.226;2023-07-24T05:39:40;7.97;;;7.28;;
18893;SDS011;9579;49.488;8.226;2023-07-24T05:42:27;7.82;;;7.15;;
18893;SDS011;9579;49.488;8.226;2023-07-24T05:45:14;8.52;;;7.68;;
18893;SDS011;9579;49.488;8.226;2023-07-24T05:48:01;7.53;;;6.82;;
18893;SDS011;9579;49.488;8.226;2023-07-24T05:50:48;8.32;;;7.53;;
18893;SDS011;9579;49.488;8.226;2023-07-24T05:53:36;8.02;;;7.32;;
18893;SDS011;9579;49.488;8.226;2023-07-24T05:56:24;7.75;;;6.93;;
18893;SDS011;9579;49.488;8.226;2023-07-24T05:59:11;8.02;;;7.25;;
18893;SDS011;9579;49.488;8.226;2023-07-24T06:01:59;7.78;;;7.07;;
18893;SDS011;9579;49.488;8.226;2023-07-24T06:04:46;8.27;;;7.53;;
18893;SDS011;9579;49.488;8.226;2023-07-24T06:07:33;7.25;;;6.55;;
18893;SDS011;9579;49.488;8.226;2023-07-24T06:10:20;7.95;;;7.15;;
18893;SDS011;9579;49.488;8.226;2023-07-24T06:13:08;7.82;;;6.43;;
18893;SDS011;9579;49.488;8.226;2023-07-24T06:15:55;7.88;;;7.18;;
18893;SDS011;9579;49.488;8.226;2023-07-24T06:18:42;7.07;;;6.47;;
18893;SDS011;9579;49.488;8.226;2023-07-24T06:21:31;7.88;;;7.07;;
18893;SDS011;9579;49.488;8.226;2023-07-24T06:24:18;6.53;;;5.95;;
18893;SDS011;9579;49.488;8.226;2023-07-24T06:27:06;7.38;;;6.70;;
18893;SDS011;9579;49.488;8.226;2023-07-24T06:29:54;6.63;;;6.07;;
18893;SDS011;9579;49.488;8.226;2023-07-24T06:32:41;6.90;;;6.30;;
18893;SDS011;9579;49.488;8.226;2023-07-24T06:35:28;6.93;;;6.20;;
18893;SDS011;9579;49.488;8.226;2023-07-24T06:38:16;7.55;;;6.82;;
18893;SDS011;9579;49.488;8.226;2023-07-24T06:41:03;6.88;;;6.28;;
18893;SDS011;9579;49.488;8.226;2023-07-24T06:43:50;7.10;;;6.50;;
18893;SDS011;9579;49.488;8.226;2023-07-24T06:46:38;6.97;;;6.35;;
18893;SDS011;9579;49.488;8.226;2023-07-24T06:49:25;7.80;;;6.22;;
18893;SDS011;9579;49.488;8.226;2023-07-24T06:52:12;7.00;;;6.45;;
18893;SDS011;9579;49.488;8.226;2023-07-24T06:54:59;7.93;;;5.88;;
18893;SDS011;9579;49.488;8.226;2023-07-24T06:57:47;6.40;;;5.90;;
18893;SDS011;9579;49.488;8.226;2023-07-24T07:00:34;6.78;;;6.18;;
18893;SDS011;9579;49.488;8.226;2023-07-24T07:03:22;6.18;;;5.68;;
18893;SDS011;9579;49.488;8.226;2023-07-24T07:06:09;6.72;;;6.13;;
18893;SDS011;9579;49.488;8.226;2023-07-24T07:08:57;6.50;;;5.90;;
18893;SDS011;9579;49.488;8.226;2023-07-24T07:11:44;6.43;;;5.53;;
18893;SDS011;9579;49.488;8.226;2023-07-24T07:14:31;6.40;;;5.90;;
18893;SDS011;9579;49.488;8.226;2023-07-24T07:17:18;5.75;;;5.25;;
18893;SDS011;9579;49.488;8.226;2023-07-24T07:20:07;6.25;;;5.65;;
18893;SDS011;9579;49.488;8.226;2023-07-24T07:22:54;5.78;;;5.28;;
18893;SDS011;9579;49.488;8.226;2023-07-24T07:25:41;6.30;;;5.57;;
18893;SDS011;9579;49.488;8.226;2023-07-24T07:28:30;6.80;;;6.20;;
18893;SDS011;9579;49.488;8.226;2023-07-24T07:31:17;7.22;;;6.53;;
18893;SDS011;9579;49.488;8.226;2023-07-24T07:34:04;6.97;;;6.38;;
18893;SDS011;9579;49.488;8.226;2023-07-24T07:36:53;6.05;;;5.55;;
18893;SDS011;9579;49.488;8.226;2023-07-24T07:39:40;7.93;;;6.93;;
18893;SDS011;9579;49.488;8.226;2023-07-24T07:42:27;7.43;;;6.78;;
18893;SDS011;9579;49.488;8.226;2023-07-24T07:45:14;7.28;;;6.68;;
18893;SDS011;9579;49.488;8.226;2023-07-24T07:48:01;7.13;;;6.53;;
18893;SDS011;9579;49.488;8.226;2023-07-24T07:50:49;9.30;;;8.27;;
18893;SDS011;9579;49.488;8.226;2023-07-24T07:53:38;8.18;;;7.43;;
18893;SDS011;9579;49.488;8.226;2023-07-24T07:56:26;8.20;;;7.40;;
18893;SDS011;9579;49.488;8.226;2023-07-24T07:59:14;8.23;;;7.38;;
18893;SDS011;9579;49.488;8.226;2023-07-24T08:02:01;8.70;;;7.80;;
18893;SDS011;9579;49.488;8.226;2023-07-24T08:04:48;8.45;;;7.75;;
18893;SDS011;9579;49.488;8.226;2023-07-24T08:07:35;8.25;;;7.50;;
18893;SDS011;9579;49.488;8.226;2023-07-24T08:10:23;7.50;;;6.90;;
18893;SDS011;9579;49.488;8.226;2023-07-24T08:13:10;8.07;;;7.28;;
18893;SDS011;9579;49.488;8.226;2023-07-24T08:15:57;7.60;;;6.95;;
18893;SDS011;9579;49.488;8.226;2023-07-24T08:18:47;7.70;;;6.88;;
18893;SDS011;9579;49.488;8.226;2023-07-24T08:21:35;7.63;;;6.82;;
18893;SDS011;9579;49.488;8.226;2023-07-24T08:24:22;9.10;;;7.65;;
18893;SDS011;9579;49.488;8.226;2023-07-24T08:27:11;7.72;;;7.03;;
18893;SDS011;9579;49.488;8.226;2023-07-24T08:29:58;7.50;;;6.75;;
18893;SDS011;9579;49.488;8.226;2023-07-24T08:32:45;7.38;;;6.70;;
18893;SDS011;9579;49.488;8.226;2023-07-24T08:35:32;6.07;;;5.57;;
18893;SDS011;9579;49.488;8.226;2023-07-24T08:38:19;5.82;;;5.32;;
18893;SDS011;9579;49.488;8.226;2023-07-24T08:41:06;6.30;;;5.70;;
18893;SDS011;9579;49.488;8.226;2023-07-24T08:43:55;5.93;;;5.43;;
18893;SDS011;9579;49.488;8.226;2023-07-24T08:46:43;5.93;;;5.53;;
18893;SDS011;9579;49.488;8.226;2023-07-24T08:49:33;5.93;;;5.43;;
18893;SDS011;9579;49.488;8.226;2023-07-24T08:52:22;6.18;;;5.57;;
18893;SDS011;9579;49.488;8.226;2023-07-24T08:55:10;6.00;;;5.47;;
18893;SDS011;9579;49.488;8.226;2023-07-24T08:57:57;6.40;;;5.80;;
18893;SDS011;9579;49.488;8.226;2023-07-24T09:00:45;5.88;;;5.32;;
18893;SDS011;9579;49.488;8.226;2023-07-24T09:03:33;6.32;;;5.75;;
18893;SDS011;9579;49.488;8.226;2023-07-24T09:06:20;6.00;;;5.50;;
18893;SDS011;9579;49.488;8.226;2023-07-24T09:09:12;5.80;;;5.30;;
18893;SDS011;9579;49.488;8.226;2023-07-24T09:12:00;6.03;;;5.53;;
18893;SDS011;9579;49.488;8.226;2023-07-24T09:14:47;6.10;;;5.60;;
18893;SDS011;9579;49.488;8.226;2023-07-24T09:17:35;5.78;;;5.18;;
18893;SDS011;9579;49.488;8.226;2023-07-24T09:20:22;6.15;;;5.55;;
18893;SDS011;9579;49.488;8.226;2023-07-24T09:23:10;6.30;;;5.68;;
18893;SDS011;9579;49.488;8.226;2023-07-24T09:25:58;5.78;;;5.28;;
18893;SDS011;9579;49.488;8.226;2023-07-24T09:28:50;5.30;;;4.90;;
18893;SDS011;9579;49.488;8.226;2023-07-24T09:31:38;5.68;;;5.18;;
18893;SDS011;9579;49.488;8.226;2023-07-24T09:34:26;5.63;;;5.13;;
18893;SDS011;9579;49.488;8.226;2023-07-24T09:37:22;5.80;;;5.30;;
18893;SDS011;9579;49.488;8.226;2023-07-24T09:40:11;5.50;;;5.00;;
18893;SDS011;9579;49.488;8.226;2023-07-24T09:43:00;4.70;;;4.30;;
18893;SDS011;9579;49.488;8.226;2023-07-24T09:45:47;5.80;;;5.25;;
18893;SDS011;9579;49.488;8.226;2023-07-24T09:48:35;5.93;;;5.38;;
18893;SDS011;9579;49.488;8.226;2023-07-24T09:51:24;5.45;;;5.05;;
18893;SDS011;9579;49.488;8.226;2023-07-24T09:54:12;6.05;;;5.45;;
18893;SDS011;9579;49.488;8.226;2023-07-24T09:57:06;5.82;;;5.25;;
18893;SDS011;9579;49.488;8.226;2023-07-24T09:59:55;5.32;;;4.82;;
18893;SDS011;9579;49.488;8.226;2023-07-24T10:02:43;5.38;;;4.93;;
18893;SDS011;9579;49.488;8.226;2023-07-24T10:05:31;5.70;;;4.70;;
18893;SDS011;9579;49.488;8.226;2023-07-24T10:08:20;5.80;;;5.30;;
18893;SDS011;9579;49.488;8.226;2023-07-24T10:11:08;5.35;;;4.85;;
18893;SDS011;9579;49.488;8.226;2023-07-24T10:13:55;5.75;;;5.25;;
18893;SDS011;9579;49.488;8.226;2023-07-24T10:16:44;5.57;;;5.07;;
18893;SDS011;9579;49.488;8.226;2023-07-24T10:19:39;5.10;;;4.70;;
18893;SDS011;9579;49.488;8.226;2023-07-24T10:22:28;5.47;;;5.05;;
18893;SDS011;9579;49.488;8.226;2023-07-24T10:25:16;4.95;;;4.55;;
18893;SDS011;9579;49.488;8.226;2023-07-24T10:28:04;5.50;;;5.00;;
18893;SDS011;9579;49.488;8.226;2023-07-24T10:30:54;5.80;;;5.30;;
18893;SDS011;9579;49.488;8.226;2023-07-24T10:33:44;6.35;;;5.45;;
18893;SDS011;9579;49.488;8.226;2023-07-24T10:36:33;6.28;;;5.57;;
18893;SDS011;9579;49.488;8.226;2023-07-24T10:39:21;6.45;;;5.95;;
18893;SDS011;9579;49.488;8.226;2023-07-24T10:42:10;6.18;;;5.60;;
18893;SDS011;9579;49.488;8.226;2023-07-24T10:45:03;6.32;;;5.72;;
18893;SDS011;9579;49.488;8.226;2023-07-24T10:47:51;5.57;;;5.07;;
18893;SDS011;9579;49.488;8.226;2023-07-24T10:50:39;5.80;;;5.22;;
18893;SDS011;9579;49.488;8.226;2023-07-24T10:53:27;5.88;;;5.38;;
18893;SDS011;9579;49.488;8.226;2023-07-24T10:56:15;5.90;;;5.40;;
18893;SDS011;9579;49.488;8.226;2023-07-24T10:59:04;6.25;;;5.68;;
18893;SDS011;9579;49.488;8.226;2023-07-24T11:01:51;5.65;;;4.90;;
18893;SDS011;9579;49.488;8.226;2023-07-24T11:04:39;5.25;;;4.85;;
18893;SDS011;9579;49.488;8.226;2023-07-24T11:07:31;5.47;;;4.97;;
18893;SDS011;9579;49.488;8.226;2023-07-24T11:10:19;5.88;;;5.38;;
18893;SDS011;9579;49.488;8.226;2023-07-24T11:13:09;5.93;;;5.43;;
18893;SDS011;9579;49.488;8.226;2023-07-24T11:16:03;6.55;;;5.78;;
18893;SDS011;9579;49.488;8.226;2023-07-24T11:18:51;6.43;;;5.88;;
18893;SDS011;9579;49.488;8.226;2023-07-24T11:21:40;7.60;;;6.75;;
18893;SDS011;9579;49.488;8.226;2023-07-24T11:24:27;6.40;;;5.88;;
18893;SDS011;9579;49.488;8.226;2023-07-24T11:27:15;7.07;;;6.45;;
18893;SDS011;9579;49.488;8.226;2023-07-24T11:30:04;8.40;;;5.85;;
18893;SDS011;9579;49.488;8.226;2023-07-24T11:32:53;5.90;;;5.40;;
18893;SDS011;9579;49.488;8.226;2023-07-24T11:35:44;6.30;;;5.70;;
18893;SDS011;9579;49.488;8.226;2023-07-24T11:38:31;7.80;;;6.20;;
18893;SDS011;9579;49.488;8.226;2023-07-24T11:41:19;7.45;;;6.72;;
18893;SDS011;9579;49.488;8.226;2023-07-24T11:44:06;7.32;;;6.72;;
18893;SDS011;9579;49.488;8.226;2023-07-24T11:46:59;7.45;;;6.75;;
18893;SDS011;9579;49.488;8.226;2023-07-24T11:49:57;7.82;;;7.10;;
18893;SDS011;9579;49.488;8.226;2023-07-24T11:52:45;7.40;;;6.70;;
18893;SDS011;9579;49.488;8.226;2023-07-24T11:55:34;7.85;;;7.15;;
18893;SDS011;9579;49.488;8.226;2023-07-24T11:58:21;7.97;;;7.00;;
18893;SDS011;9579;49.488;8.226;2023-07-24T12:01:08;8.23;;;7.53;;
18893;SDS011;9579;49.488;8.226;2023-07-24T12:03:58;7.78;;;7.07;;
18893;SDS011;9579;49.488;8.226;2023-07-24T12:06:47;7.80;;;7.05;;
18893;SDS011;9579;49.488;8.226;2023-07-24T12:09:38;7.97;;;7.28;;
18893;SDS011;9579;49.488;8.226;2023-07-24T12:12:25;7.72;;;6.95;;
18893;SDS011;9579;49.488;8.226;2023-07-24T12:15:24;7.78;;;7.07;;
18893;SDS011;9579;49.488;8.226;2023-07-24T12:18:15;7.53;;;6.93;;
18893;SDS011;9579;49.488;8.226;2023-07-24T12:21:05;7.97;;;7.28;;
18893;SDS011;9579;49.488;8.226;2023-07-24T12:23:54;7.97;;;7.20;;
18893;SDS011;9579;49.488;8.226;2023-07-24T12:26:41;8.45;;;7.50;;
18893;SDS011;9579;49.488;8.226;2023-07-24T12:29:28;7.97;;;7.22;;
18893;SDS011;9579;49.488;8.226;2023-07-24T12:32:15;7.85;;;7.15;;
18893;SDS011;9579;49.488;8.226;2023-07-24T12:35:03;7.97;;;7.20;;
18893;SDS011;9579;49.488;8.226;2023-07-24T12:37:51;8.75;;;7.80;;
18893;SDS011;9579;49.488;8.226;2023-07-24T12:40:39;7.85;;;7.15;;
18893;SDS011;9579;49.488;8.226;2023-07-24T12:43:26;8.20;;;7.40;;
18893;SDS011;9579;49.488;8.226;2023-07-24T12:46:13;8.38;;;7.45;;
18893;SDS011;9579;49.488;8.226;2023-07-24T12:49:00;7.78;;;7.10;;
18893;SDS011;9579;49.488;8.226;2023-07-24T12:51:49;8.20;;;7.18;;
18893;SDS011;9579;49.488;8.226;2023-07-24T12:54:36;7.70;;;6.93;;
18893;SDS011;9579;49.488;8.226;2023-07-24T12:57:28;7.82;;;7.15;;
18893;SDS011;9579;49.488;8.226;2023-07-24T13:00:17;8.63;;;7.90;;
18893;SDS011;9579;49.488;8.226;2023-07-24T13:03:07;7.35;;;6.65;;
18893;SDS011;9579;49.488;8.226;2023-07-24T13:05:57;7.28;;;6.68;;
18893;SDS011;9579;49.488;8.226;2023-07-24T13:08:50;7.53;;;6.82;;
18893;SDS011;9579;49.488;8.226;2023-07-24T13:11:37;6.25;;;5.70;;
18893;SDS011;9579;49.488;8.226;2023-07-24T13:14:25;6.85;;;6.20;;
18893;SDS011;9579;49.488;8.226;2023-07-24T13:17:12;6.75;;;6.22;;
18893;SDS011;9579;49.488;8.226;2023-07-24T13:19:59;6.20;;;5.60;;
18893;SDS011;9579;49.488;8.226;2023-07-24T13:22:46;6.75;;;6.15;;
18893;SDS011;9579;49.488;8.226;2023-07-24T13:25:34;6.40;;;5.88;;
18893;SDS011;9579;49.488;8.226;2023-07-24T13:28:21;6.40;;;5.80;;
18893;SDS011;9579;49.488;8.226;2023-07-24T13:31:12;6.22;;;5.72;;
18893;SDS011;9579;49.488;8.226;2023-07-24T13:34:00;6.22;;;5.72;;
18893;SDS011;9579;49.488;8.226;2023-07-24T13:36:47;6.47;;;5.88;;
18893;SDS011;9579;49.488;8.226;2023-07-24T13:39:35;13.65;;;8.13;;
18893;SDS011;9579;49.488;8.226;2023-07-24T13:42:22;11.93;;;7.25;;
18893;SDS011;9579;49.488;8.226;2023-07-24T13:45:09;9.95;;;7.55;;
18893;SDS011;9579;49.488;8.226;2023-07-24T13:47:58;8.80;;;7.90;;
18893;SDS011;9579;49.488;8.226;2023-07-24T13:50:45;8.23;;;7.05;;
18893;SDS011;9579;49.488;8.226;2023-07-24T13:53:32;7.32;;;6.63;;
18893;SDS011;9579;49.488;8.226;2023-07-24T13:56:21;6.90;;;6.30;;
18893;SDS011;9579;49.488;8.226;2023-07-24T13:59:11;8.65;;;7.75;;
18893;SDS011;9579;49.488;8.226;2023-07-24T14:02:12;8.60;;;7.70;;
18893;SDS011;9579;49.488;8.226;2023-07-24T14:21:52;9.10;;;8.07;;
18893;SDS011;9579;49.488;8.226;2023-07-24T14:31:15;7.03;;;6.32;;
18893;SDS011;9579;49.488;8.226;2023-07-24T14:34:22;7.18;;;6.47;;
18893;SDS011;9579;49.488;8.226;2023-07-24T14:37:12;6.82;;;6.22;;
18893;SDS011;9579;49.488;8.226;2023-07-24T14:39:59;7.13;;;6.43;;
18893;SDS011;9579;49.488;8.226;2023-07-24T14:42:46;6.97;;;6.10;;
18893;SDS011;9579;49.488;8.226;2023-07-24T14:45:35;6.63;;;6.03;;
18893;SDS011;9579;49.488;8.226;2023-07-24T14:48:23;6.60;;;6.10;;
18893;SDS011;9579;49.488;8.226;2023-07-24T14:51:10;7.32;;;6.18;;
18893;SDS011;9579;49.488;8.226;2023-07-24T14:53:57;6.68;;;6.18;;
18893;SDS011;9579;49.488;8.226;2023-07-24T14:56:45;6.00;;;5.50;;
18893;SDS011;9579;49.488;8.226;2023-07-24T14:59:32;4.90;;;4.35;;
18893;SDS011;9579;49.488;8.226;2023-07-24T15:02:20;5.13;;;4.72;;
18893;SDS011;9579;49.488;8.226;2023-07-24T15:05:07;6.95;;;6.35;;
18893;SDS011;9579;49.488;8.226;2023-07-24T15:07:54;6.22;;;5.50;;
18893;SDS011;9579;49.488;8.226;2023-07-24T15:10:41;6.05;;;5.45;;
18893;SDS011;9579;49.488;8.226;2023-07-24T15:13:28;5.70;;;5.20;;
18893;SDS011;9579;49.488;8.226;2023-07-24T15:16:15;4.38;;;4.00;;
18893;SDS011;9579;49.488;8.226;2023-07-24T15:19:04;4.10;;;3.75;;
18893;SDS011;9579;49.488;8.226;2023-07-24T15:21:51;3.60;;;3.30;;
18893;SDS011;9579;49.488;8.226;2023-07-24T15:24:39;3.58;;;3.28;;
18893;SDS011;9579;49.488;8.226;2023-07-24T15:27:26;2.97;;;2.78;;
18893;SDS011;9579;49.488;8.226;2023-07-24T15:30:13;3.05;;;2.85;;
18893;SDS011;9579;49.488;8.226;2023-07-24T15:33:00;3.00;;;2.80;;
18893;SDS011;9579;49.488;8.226;2023-07-24T15:35:48;2.60;;;2.40;;
18893;SDS011;9579;49.488;8.226;2023-07-24T15:38:36;2.58;;;2.40;;
18893;SDS011;9579;49.488;8.226;2023-07-24T15:41:23;2.20;;;2.00;;
18893;SDS011;9579;49.488;8.226;2023-07-24T15:44:10;2.20;;;2.10;;
18893;SDS011;9579;49.488;8.226;2023-07-24T15:46:57;2.30;;;2.20;;
18893;SDS011;9579;49.488;8.226;2023-07-24T15:49:44;2.10;;;2.00;;
18893;SDS011;9579;49.488;8.226;2023-07-24T15:52:33;1.83;;;1.73;;
18893;SDS011;9579;49.488;8.226;2023-07-24T15:55:20;2.10;;;2.00;;
18893;SDS011;9579;49.488;8.226;2023-07-24T15:58:07;2.10;;;2.00;;
18893;SDS011;9579;49.488;8.226;2023-07-24T16:00:54;2.17;;;1.98;;
18893;SDS011;9579;49.488;8.226;2023-07-24T16:03:41;1.85;;;1.75;;
18893;SDS011;9579;49.488;8.226;2023-07-24T16:06:29;1.83;;;1.73;;
18893;SDS011;9579;49.488;8.226;2023-07-24T16:09:18;2.30;;;1.80;;
18893;SDS011;9579;49.488;8.226;2023-07-24T16:12:07;1.70;;;1.60;;
18893;SDS011;9579;49.488;8.226;2023-07-24T16:15:01;1.80;;;1.70;;
18893;SDS011;9579;49.488;8.226;2023-07-24T16:17:49;1.73;;;1.63;;
18893;SDS011;9579;49.488;8.226;2023-07-24T16:20:36;1.90;;;1.80;;
18893;SDS011;9579;49.488;8.226;2023-07-24T16:23:23;1.80;;;1.70;;
18893;SDS011;9579;49.488;8.226;2023-07-24T16:26:12;2.40;;;1.88;;
18893;SDS011;9579;49.488;8.226;2023-07-24T16:28:59;1.80;;;1.70;;
18893;SDS011;9579;49.488;8.226;2023-07-24T16:31:46;1.98;;;1.77;;
18893;SDS011;9579;49.488;8.226;2023-07-24T16:34:33;1.92;;;1.83;;
18893;SDS011;9579;49.488;8.226;2023-07-24T16:37:21;3.47;;;1.90;;
18893;SDS011;9579;49.488;8.226;2023-07-24T16:40:10;2.47;;;2.03;;
18893;SDS011;9579;49.488;8.226;2023-07-24T16:42:59;2.15;;;2.05;;
18893;SDS011;9579;49.488;8.226;2023-07-24T16:45:46;2.15;;;1.95;;
18893;SDS011;9579;49.488;8.226;2023-07-24T16:48:38;2.13;;;1.80;;
18893;SDS011;9579;49.488;8.226;2023-07-24T16:51:26;2.33;;;2.10;;
18893;SDS011;9579;49.488;8.226;2023-07-24T16:54:14;2.00;;;1.90;;
18893;SDS011;9579;49.488;8.226;2023-07-24T16:57:01;2.15;;;1.95;;
18893;SDS011;9579;49.488;8.226;2023-07-24T16:59:51;1.98;;;1.88;;
18893;SDS011;9579;49.488;8.226;2023-07-24T17:02:39;2.10;;;2.00;;
18893;SDS011;9579;49.488;8.226;2023-07-24T17:05:26;2.30;;;2.10;;
18893;SDS011;9579;49.488;8.226;2023-07-24T17:08:15;2.40;;;2.05;;
18893;SDS011;9579;49.488;8.226;2023-07-24T17:11:03;2.28;;;2.08;;
18893;SDS011;9579;49.488;8.226;2023-07-24T17:13:50;2.30;;;2.10;;
18893;SDS011;9579;49.488;8.226;2023-07-24T17:16:38;2.10;;;2.00;;
18893;SDS011;9579;49.488;8.226;2023-07-24T17:19:25;2.28;;;1.75;;
18893;SDS011;9579;49.488;8.226;2023-07-24T17:22:12;2.33;;;2.13;;
18893;SDS011;9579;49.488;8.226;2023-07-24T17:25:01;1.92;;;1.83;;
18893;SDS011;9579;49.488;8.226;2023-07-24T17:27:48;2.50;;;1.98;;
18893;SDS011;9579;49.488;8.226;2023-07-24T17:30:35;2.30;;;2.13;;